sensor_id;sensor_type;location;lat;lon;timestamp;temperature;humidity
63094;DHT22;49183;51.380;0.098;2023-05-07T00:02:15;13.00;92.10
63094;DHT22;49183;51.380;0.098;2023-05-07T00:04:43;12.90;92.10
63094;DHT22;49183;51.380;0.098;2023-05-07T00:07:11;13.00;92.10
63094;DHT22;49183;51.380;0.098;2023-05-07T00:09:39;12.90;92.10
63094;DHT22;49183;51.380;0.098;2023-05-07T00:12:07;13.00;92.10
63094;DHT22;49183;51.380;0.098;2023-05-07T00:14:35;13.00;92.10
63094;DHT22;49183;51.380;0.098;2023-05-07T00:17:03;13.00;92.10
63094;DHT22;49183;51.380;0.098;2023-05-07T00:19:30;13.00;92.10
63094;DHT22;49183;51.380;0.098;2023-05-07T00:21:59;13.00;92.20
63094;DHT22;49183;51.380;0.098;2023-05-07T00:24:26;13.00;92.20
63094;DHT22;49183;51.380;0.098;2023-05-07T00:26:54;12.90;92.20
63094;DHT22;49183;51.380;0.098;2023-05-07T00:29:22;13.00;92.20
63094;DHT22;49183;51.380;0.098;2023-05-07T00:31:49;13.00;92.20
63094;DHT22;49183;51.380;0.098;2023-05-07T00:34:18;13.00;92.20
63094;DHT22;49183;51.380;0.098;2023-05-07T00:36:46;13.00;92.20
63094;DHT22;49183;51.380;0.098;2023-05-07T00:39:14;13.00;92.20
63094;DHT22;49183;51.380;0.098;2023-05-07T00:41:42;13.00;92.20
63094;DHT22;49183;51.380;0.098;2023-05-07T00:44:09;13.00;92.30
63094;DHT22;49183;51.380;0.098;2023-05-07T00:46:37;13.00;92.30
63094;DHT22;49183;51.380;0.098;2023-05-07T00:49:06;13.00;92.30
63094;DHT22;49183;51.380;0.098;2023-05-07T00:51:34;13.10;92.30
63094;DHT22;49183;51.380;0.098;2023-05-07T00:54:02;13.00;92.30
63094;DHT22;49183;51.380;0.098;2023-05-07T00:56:31;13.10;92.30
63094;DHT22;49183;51.380;0.098;2023-05-07T00:58:59;13.00;92.30
63094;DHT22;49183;51.380;0.098;2023-05-07T01:01:28;13.00;92.40
63094;DHT22;49183;51.380;0.098;2023-05-07T01:03:55;13.00;92.40
63094;DHT22;49183;51.380;0.098;2023-05-07T01:06:25;13.00;92.40
63094;DHT22;49183;51.380;0.098;2023-05-07T01:08:55;13.00;92.40
63094;DHT22;49183;51.380;0.098;2023-05-07T01:11:24;13.00;92.40
63094;DHT22;49183;51.380;0.098;2023-05-07T01:13:53;13.00;92.50
63094;DHT22;49183;51.380;0.098;2023-05-07T01:16:21;13.00;92.50
63094;DHT22;49183;51.380;0.098;2023-05-07T01:18:49;13.00;92.50
63094;DHT22;49183;51.380;0.098;2023-05-07T01:21:18;13.00;92.60
63094;DHT22;49183;51.380;0.098;2023-05-07T01:23:46;13.00;92.60
63094;DHT22;49183;51.380;0.098;2023-05-07T01:26:14;13.00;92.60
63094;DHT22;49183;51.380;0.098;2023-05-07T01:28:45;12.90;92.60
63094;DHT22;49183;51.380;0.098;2023-05-07T01:31:14;13.00;92.60
63094;DHT22;49183;51.380;0.098;2023-05-07T01:33:44;12.90;92.60
63094;DHT22;49183;51.380;0.098;2023-05-07T01:36:13;12.90;92.70
63094;DHT22;49183;51.380;0.098;2023-05-07T01:38:41;12.90;92.70
63094;DHT22;49183;51.380;0.098;2023-05-07T01:41:10;12.90;92.70
63094;DHT22;49183;51.380;0.098;2023-05-07T01:43:40;12.90;92.70
63094;DHT22;49183;51.380;0.098;2023-05-07T01:46:09;12.90;92.70
63094;DHT22;49183;51.380;0.098;2023-05-07T01:48:38;12.80;92.70
63094;DHT22;49183;51.380;0.098;2023-05-07T01:51:06;12.80;92.80
63094;DHT22;49183;51.380;0.098;2023-05-07T01:53:39;12.90;92.80
63094;DHT22;49183;51.380;0.098;2023-05-07T01:56:08;12.80;92.80
63094;DHT22;49183;51.380;0.098;2023-05-07T01:58:38;12.80;92.80
63094;DHT22;49183;51.380;0.098;2023-05-07T02:01:05;12.80;92.80
63094;DHT22;49183;51.380;0.098;2023-05-07T02:03:33;12.80;92.80
63094;DHT22;49183;51.380;0.098;2023-05-07T02:06:09;12.80;92.80
63094;DHT22;49183;51.380;0.098;2023-05-07T02:08:38;12.80;92.80
63094;DHT22;49183;51.380;0.098;2023-05-07T02:11:06;12.80;92.90
63094;DHT22;49183;51.380;0.098;2023-05-07T02:13:35;12.80;92.90
63094;DHT22;49183;51.380;0.098;2023-05-07T02:16:03;12.80;92.90
63094;DHT22;49183;51.380;0.098;2023-05-07T02:18:31;12.80;92.90
63094;DHT22;49183;51.380;0.098;2023-05-07T02:20:59;12.80;92.90
63094;DHT22;49183;51.380;0.098;2023-05-07T02:23:27;12.70;92.90
63094;DHT22;49183;51.380;0.098;2023-05-07T02:25:55;12.80;92.90
63094;DHT22;49183;51.380;0.098;2023-05-07T02:28:22;12.80;92.90
63094;DHT22;49183;51.380;0.098;2023-05-07T02:30:58;12.80;92.90
63094;DHT22;49183;51.380;0.098;2023-05-07T02:33:28;12.70;92.90
63094;DHT22;49183;51.380;0.098;2023-05-07T02:35:56;12.70;92.90
63094;DHT22;49183;51.380;0.098;2023-05-07T02:38:24;12.80;92.90
63094;DHT22;49183;51.380;0.098;2023-05-07T02:40:51;12.70;92.90
63094;DHT22;49183;51.380;0.098;2023-05-07T02:43:19;12.80;92.90
63094;DHT22;49183;51.380;0.098;2023-05-07T02:45:49;12.80;92.90
63094;DHT22;49183;51.380;0.098;2023-05-07T02:48:17;12.70;92.90
63094;DHT22;49183;51.380;0.098;2023-05-07T02:50:44;12.70;92.90
63094;DHT22;49183;51.380;0.098;2023-05-07T02:53:14;12.80;92.90
63094;DHT22;49183;51.380;0.098;2023-05-07T02:55:41;12.80;92.90
63094;DHT22;49183;51.380;0.098;2023-05-07T02:58:09;12.80;92.90
63094;DHT22;49183;51.380;0.098;2023-05-07T03:00:39;12.80;92.90
63094;DHT22;49183;51.380;0.098;2023-05-07T03:03:18;12.80;92.90
63094;DHT22;49183;51.380;0.098;2023-05-07T03:05:45;12.70;92.90
63094;DHT22;49183;51.380;0.098;2023-05-07T03:08:13;12.70;92.90
63094;DHT22;49183;51.380;0.098;2023-05-07T03:10:41;12.60;92.90
63094;DHT22;49183;51.380;0.098;2023-05-07T03:13:09;12.60;92.90
63094;DHT22;49183;51.380;0.098;2023-05-07T03:15:37;12.60;92.90
63094;DHT22;49183;51.380;0.098;2023-05-07T03:18:04;12.50;92.90
63094;DHT22;49183;51.380;0.098;2023-05-07T03:20:32;12.50;92.90
63094;DHT22;49183;51.380;0.098;2023-05-07T03:23:00;12.50;92.90
63094;DHT22;49183;51.380;0.098;2023-05-07T03:25:28;12.40;92.90
63094;DHT22;49183;51.380;0.098;2023-05-07T03:27:57;12.40;92.90
63094;DHT22;49183;51.380;0.098;2023-05-07T03:30:33;12.40;92.80
63094;DHT22;49183;51.380;0.098;2023-05-07T03:33:01;12.30;92.70
63094;DHT22;49183;51.380;0.098;2023-05-07T03:35:28;12.30;92.70
63094;DHT22;49183;51.380;0.098;2023-05-07T03:37:56;12.10;92.60
63094;DHT22;49183;51.380;0.098;2023-05-07T03:40:27;12.10;92.60
63094;DHT22;49183;51.380;0.098;2023-05-07T03:42:56;12.00;92.60
63094;DHT22;49183;51.380;0.098;2023-05-07T03:45:26;12.00;92.60
63094;DHT22;49183;51.380;0.098;2023-05-07T03:48:06;11.90;92.60
63094;DHT22;49183;51.380;0.098;2023-05-07T03:50:34;11.90;92.60
63094;DHT22;49183;51.380;0.098;2023-05-07T03:53:02;11.90;92.60
63094;DHT22;49183;51.380;0.098;2023-05-07T03:55:31;11.90;92.60
63094;DHT22;49183;51.380;0.098;2023-05-07T03:58:00;11.80;92.60
63094;DHT22;49183;51.380;0.098;2023-05-07T04:00:28;11.80;92.50
63094;DHT22;49183;51.380;0.098;2023-05-07T04:02:58;11.80;92.50
63094;DHT22;49183;51.380;0.098;2023-05-07T04:05:30;11.80;92.50
63094;DHT22;49183;51.380;0.098;2023-05-07T04:08:01;11.80;92.50
63094;DHT22;49183;51.380;0.098;2023-05-07T04:10:38;11.80;92.50
63094;DHT22;49183;51.380;0.098;2023-05-07T04:13:10;11.70;92.40
63094;DHT22;49183;51.380;0.098;2023-05-07T04:15:38;11.70;92.50
63094;DHT22;49183;51.380;0.098;2023-05-07T04:18:09;11.60;92.40
63094;DHT22;49183;51.380;0.098;2023-05-07T04:20:38;11.60;92.40
63094;DHT22;49183;51.380;0.098;2023-05-07T04:23:10;11.60;92.40
63094;DHT22;49183;51.380;0.098;2023-05-07T04:25:38;11.60;92.40
63094;DHT22;49183;51.380;0.098;2023-05-07T04:28:11;11.60;92.40
63094;DHT22;49183;51.380;0.098;2023-05-07T04:30:40;11.50;92.40
63094;DHT22;49183;51.380;0.098;2023-05-07T04:33:09;11.50;92.40
63094;DHT22;49183;51.380;0.098;2023-05-07T04:35:38;11.50;92.40
63094;DHT22;49183;51.380;0.098;2023-05-07T04:38:06;11.50;92.40
63094;DHT22;49183;51.380;0.098;2023-05-07T04:40:36;11.50;92.40
63094;DHT22;49183;51.380;0.098;2023-05-07T04:43:04;11.50;92.40
63094;DHT22;49183;51.380;0.098;2023-05-07T04:45:38;11.50;92.40
63094;DHT22;49183;51.380;0.098;2023-05-07T04:48:09;11.50;92.40
63094;DHT22;49183;51.380;0.098;2023-05-07T04:50:40;11.50;92.40
63094;DHT22;49183;51.380;0.098;2023-05-07T04:53:08;11.50;92.40
63094;DHT22;49183;51.380;0.098;2023-05-07T04:55:36;11.50;92.30
63094;DHT22;49183;51.380;0.098;2023-05-07T04:58:04;11.50;92.30
63094;DHT22;49183;51.380;0.098;2023-05-07T05:00:35;11.50;92.30
63094;DHT22;49183;51.380;0.098;2023-05-07T05:03:07;11.60;92.30
63094;DHT22;49183;51.380;0.098;2023-05-07T05:05:39;11.60;92.30
63094;DHT22;49183;51.380;0.098;2023-05-07T05:08:07;11.60;92.30
63094;DHT22;49183;51.380;0.098;2023-05-07T05:10:38;11.60;92.30
63094;DHT22;49183;51.380;0.098;2023-05-07T05:13:06;11.60;92.20
63094;DHT22;49183;51.380;0.098;2023-05-07T05:15:35;11.60;92.20
63094;DHT22;49183;51.380;0.098;2023-05-07T05:18:03;11.60;92.20
63094;DHT22;49183;51.380;0.098;2023-05-07T05:20:31;11.60;92.20
63094;DHT22;49183;51.380;0.098;2023-05-07T05:22:58;11.70;92.10
63094;DHT22;49183;51.380;0.098;2023-05-07T05:25:26;11.70;92.10
63094;DHT22;49183;51.380;0.098;2023-05-07T05:27:55;11.70;92.10
63094;DHT22;49183;51.380;0.098;2023-05-07T05:30:24;11.80;92.10
63094;DHT22;49183;51.380;0.098;2023-05-07T05:32:52;11.80;92.00
63094;DHT22;49183;51.380;0.098;2023-05-07T05:35:19;11.80;92.00
63094;DHT22;49183;51.380;0.098;2023-05-07T05:37:47;11.80;92.00
63094;DHT22;49183;51.380;0.098;2023-05-07T05:40:16;11.80;91.90
63094;DHT22;49183;51.380;0.098;2023-05-07T05:42:44;11.80;91.90
63094;DHT22;49183;51.380;0.098;2023-05-07T05:45:12;11.90;91.90
63094;DHT22;49183;51.380;0.098;2023-05-07T05:47:41;12.00;91.90
63094;DHT22;49183;51.380;0.098;2023-05-07T05:50:08;12.10;91.90
63094;DHT22;49183;51.380;0.098;2023-05-07T05:52:37;12.10;91.80
63094;DHT22;49183;51.380;0.098;2023-05-07T05:55:06;12.10;91.70
63094;DHT22;49183;51.380;0.098;2023-05-07T05:57:35;12.20;91.70
63094;DHT22;49183;51.380;0.098;2023-05-07T06:00:04;12.30;91.60
63094;DHT22;49183;51.380;0.098;2023-05-07T06:02:33;12.30;91.60
63094;DHT22;49183;51.380;0.098;2023-05-07T06:05:02;12.30;91.50
63094;DHT22;49183;51.380;0.098;2023-05-07T06:07:30;12.40;91.50
63094;DHT22;49183;51.380;0.098;2023-05-07T06:09:58;12.40;91.40
63094;DHT22;49183;51.380;0.098;2023-05-07T06:12:25;12.40;91.30
63094;DHT22;49183;51.380;0.098;2023-05-07T06:14:53;12.50;91.30
63094;DHT22;49183;51.380;0.098;2023-05-07T06:17:21;12.60;91.20
63094;DHT22;49183;51.380;0.098;2023-05-07T06:19:50;12.60;91.10
63094;DHT22;49183;51.380;0.098;2023-05-07T06:22:19;12.70;91.10
63094;DHT22;49183;51.380;0.098;2023-05-07T06:24:47;12.70;91.00
63094;DHT22;49183;51.380;0.098;2023-05-07T06:27:15;12.70;90.90
63094;DHT22;49183;51.380;0.098;2023-05-07T06:29:44;12.80;90.80
63094;DHT22;49183;51.380;0.098;2023-05-07T06:32:15;12.70;90.80
63094;DHT22;49183;51.380;0.098;2023-05-07T06:34:45;12.70;90.70
63094;DHT22;49183;51.380;0.098;2023-05-07T06:37:14;12.70;90.70
63094;DHT22;49183;51.380;0.098;2023-05-07T06:39:57;12.70;90.70
63094;DHT22;49183;51.380;0.098;2023-05-07T06:42:28;12.70;90.70
63094;DHT22;49183;51.380;0.098;2023-05-07T06:45:00;12.70;90.70
63094;DHT22;49183;51.380;0.098;2023-05-07T06:47:30;12.70;90.70
63094;DHT22;49183;51.380;0.098;2023-05-07T06:49:58;12.80;90.60
63094;DHT22;49183;51.380;0.098;2023-05-07T06:52:30;12.80;90.50
63094;DHT22;49183;51.380;0.098;2023-05-07T06:54:58;12.80;90.40
63094;DHT22;49183;51.380;0.098;2023-05-07T06:57:26;12.80;90.40
63094;DHT22;49183;51.380;0.098;2023-05-07T06:59:54;12.90;90.30
63094;DHT22;49183;51.380;0.098;2023-05-07T07:02:22;12.90;90.10
63094;DHT22;49183;51.380;0.098;2023-05-07T07:04:50;13.00;90.00
63094;DHT22;49183;51.380;0.098;2023-05-07T07:07:19;13.00;89.90
63094;DHT22;49183;51.380;0.098;2023-05-07T07:09:49;13.00;89.80
63094;DHT22;49183;51.380;0.098;2023-05-07T07:12:19;13.10;89.70
63094;DHT22;49183;51.380;0.098;2023-05-07T07:14:47;13.20;89.70
63094;DHT22;49183;51.380;0.098;2023-05-07T07:17:15;13.20;89.50
63094;DHT22;49183;51.380;0.098;2023-05-07T07:19:43;13.20;89.50
63094;DHT22;49183;51.380;0.098;2023-05-07T07:22:10;13.40;89.40
63094;DHT22;49183;51.380;0.098;2023-05-07T07:24:38;13.50;89.30
63094;DHT22;49183;51.380;0.098;2023-05-07T07:27:08;13.60;89.00
63094;DHT22;49183;51.380;0.098;2023-05-07T07:29:36;13.60;88.80
63094;DHT22;49183;51.380;0.098;2023-05-07T07:32:04;13.70;88.60
63094;DHT22;49183;51.380;0.098;2023-05-07T07:34:32;13.80;88.50
63094;DHT22;49183;51.380;0.098;2023-05-07T07:37:01;13.90;88.40
63094;DHT22;49183;51.380;0.098;2023-05-07T07:39:34;14.20;88.30
63094;DHT22;49183;51.380;0.098;2023-05-07T07:42:02;14.50;87.80
63094;DHT22;49183;51.380;0.098;2023-05-07T07:44:31;14.70;86.40
63094;DHT22;49183;51.380;0.098;2023-05-07T07:47:04;14.80;85.80
63094;DHT22;49183;51.380;0.098;2023-05-07T07:49:32;14.80;86.20
63094;DHT22;49183;51.380;0.098;2023-05-07T07:52:04;15.10;86.50
63094;DHT22;49183;51.380;0.098;2023-05-07T07:54:34;15.30;86.30
63094;DHT22;49183;51.380;0.098;2023-05-07T07:57:02;15.50;85.90
63094;DHT22;49183;51.380;0.098;2023-05-07T07:59:33;15.60;85.10
63094;DHT22;49183;51.380;0.098;2023-05-07T08:02:01;15.70;84.20
63094;DHT22;49183;51.380;0.098;2023-05-07T08:04:30;15.80;84.20
63094;DHT22;49183;51.380;0.098;2023-05-07T08:07:03;15.80;84.00
63094;DHT22;49183;51.380;0.098;2023-05-07T08:09:34;15.90;83.70
63094;DHT22;49183;51.380;0.098;2023-05-07T08:12:04;15.80;83.20
63094;DHT22;49183;51.380;0.098;2023-05-07T08:14:34;15.80;83.20
63094;DHT22;49183;51.380;0.098;2023-05-07T08:17:05;15.60;83.40
63094;DHT22;49183;51.380;0.098;2023-05-07T08:19:34;15.70;83.70
63094;DHT22;49183;51.380;0.098;2023-05-07T08:22:03;15.80;83.60
63094;DHT22;49183;51.380;0.098;2023-05-07T08:24:34;15.90;83.20
63094;DHT22;49183;51.380;0.098;2023-05-07T08:27:02;16.00;83.20
63094;DHT22;49183;51.380;0.098;2023-05-07T08:29:30;16.10;83.00
63094;DHT22;49183;51.380;0.098;2023-05-07T08:31:59;16.20;82.80
63094;DHT22;49183;51.380;0.098;2023-05-07T08:34:30;16.20;82.00
63094;DHT22;49183;51.380;0.098;2023-05-07T08:36:59;16.20;82.10
63094;DHT22;49183;51.380;0.098;2023-05-07T08:39:27;16.30;82.10
63094;DHT22;49183;51.380;0.098;2023-05-07T08:41:56;16.50;81.90
63094;DHT22;49183;51.380;0.098;2023-05-07T08:44:27;16.70;81.20
63094;DHT22;49183;51.380;0.098;2023-05-07T08:46:58;16.90;80.50
63094;DHT22;49183;51.380;0.098;2023-05-07T08:49:28;17.10;79.20
63094;DHT22;49183;51.380;0.098;2023-05-07T08:51:56;17.10;79.10
63094;DHT22;49183;51.380;0.098;2023-05-07T08:54:26;17.10;78.20
63094;DHT22;49183;51.380;0.098;2023-05-07T08:56:54;17.00;78.50
63094;DHT22;49183;51.380;0.098;2023-05-07T08:59:22;17.00;78.50
63094;DHT22;49183;51.380;0.098;2023-05-07T09:01:50;17.10;78.60
63094;DHT22;49183;51.380;0.098;2023-05-07T09:04:18;17.10;78.50
63094;DHT22;49183;51.380;0.098;2023-05-07T09:06:46;17.20;78.00
63094;DHT22;49183;51.380;0.098;2023-05-07T09:09:17;17.30;77.70
63094;DHT22;49183;51.380;0.098;2023-05-07T09:11:46;17.40;77.10
63094;DHT22;49183;51.380;0.098;2023-05-07T09:14:17;17.40;76.80
63094;DHT22;49183;51.380;0.098;2023-05-07T09:16:46;17.50;76.30
63094;DHT22;49183;51.380;0.098;2023-05-07T09:19:14;17.60;75.90
63094;DHT22;49183;51.380;0.098;2023-05-07T09:21:45;17.80;76.10
63094;DHT22;49183;51.380;0.098;2023-05-07T09:24:15;17.80;76.00
63094;DHT22;49183;51.380;0.098;2023-05-07T09:26:43;17.80;75.90
63094;DHT22;49183;51.380;0.098;2023-05-07T09:29:15;17.80;75.90
63094;DHT22;49183;51.380;0.098;2023-05-07T09:31:45;17.90;76.30
63094;DHT22;49183;51.380;0.098;2023-05-07T09:34:16;18.30;76.10
63094;DHT22;49183;51.380;0.098;2023-05-07T09:36:45;18.80;75.40
63094;DHT22;49183;51.380;0.098;2023-05-07T09:39:13;18.90;74.30
63094;DHT22;49183;51.380;0.098;2023-05-07T09:41:45;19.10;73.60
63094;DHT22;49183;51.380;0.098;2023-05-07T09:44:20;19.00;73.30
63094;DHT22;49183;51.380;0.098;2023-05-07T09:46:54;19.00;73.20
63094;DHT22;49183;51.380;0.098;2023-05-07T09:49:36;18.90;73.10
63094;DHT22;49183;51.380;0.098;2023-05-07T09:52:08;18.90;73.20
63094;DHT22;49183;51.380;0.098;2023-05-07T09:54:43;18.80;72.80
63094;DHT22;49183;51.380;0.098;2023-05-07T09:57:14;18.60;72.00
63094;DHT22;49183;51.380;0.098;2023-05-07T09:59:45;18.30;72.20
63094;DHT22;49183;51.380;0.098;2023-05-07T10:02:18;18.10;73.10
63094;DHT22;49183;51.380;0.098;2023-05-07T10:04:50;18.10;73.40
63094;DHT22;49183;51.380;0.098;2023-05-07T10:07:22;18.20;73.80
63094;DHT22;49183;51.380;0.098;2023-05-07T10:09:54;18.50;73.80
63094;DHT22;49183;51.380;0.098;2023-05-07T10:12:30;18.80;73.20
63094;DHT22;49183;51.380;0.098;2023-05-07T10:15:11;19.10;72.60
63094;DHT22;49183;51.380;0.098;2023-05-07T10:17:42;19.30;71.60
63094;DHT22;49183;51.380;0.098;2023-05-07T10:20:11;19.40;71.60
63094;DHT22;49183;51.380;0.098;2023-05-07T10:22:45;19.50;71.20
63094;DHT22;49183;51.380;0.098;2023-05-07T10:25:28;19.60;70.90
63094;DHT22;49183;51.380;0.098;2023-05-07T10:28:06;19.60;70.00
63094;DHT22;49183;51.380;0.098;2023-05-07T10:30:50;19.40;69.80
63094;DHT22;49183;51.380;0.098;2023-05-07T10:33:27;19.30;69.40
63094;DHT22;49183;51.380;0.098;2023-05-07T10:36:00;19.30;70.00
63094;DHT22;49183;51.380;0.098;2023-05-07T10:38:30;19.30;70.10
63094;DHT22;49183;51.380;0.098;2023-05-07T10:41:00;19.40;69.90
63094;DHT22;49183;51.380;0.098;2023-05-07T10:43:41;19.40;69.50
63094;DHT22;49183;51.380;0.098;2023-05-07T10:51:35;19.40;68.80
63094;DHT22;49183;51.380;0.098;2023-05-07T10:56:50;19.40;68.70
63094;DHT22;49183;51.380;0.098;2023-05-07T10:59:33;19.50;68.60
63094;DHT22;49183;51.380;0.098;2023-05-07T11:02:14;19.70;68.50
63094;DHT22;49183;51.380;0.098;2023-05-07T11:05:21;19.80;68.50
63094;DHT22;49183;51.380;0.098;2023-05-07T11:08:08;19.80;67.70
63094;DHT22;49183;51.380;0.098;2023-05-07T11:10:57;19.80;67.30
63094;DHT22;49183;51.380;0.098;2023-05-07T11:14:01;19.80;67.20
63094;DHT22;49183;51.380;0.098;2023-05-07T11:16:37;19.80;67.10
63094;DHT22;49183;51.380;0.098;2023-05-07T11:19:49;19.80;66.60
63094;DHT22;49183;51.380;0.098;2023-05-07T11:25:34;20.00;66.90
63094;DHT22;49183;51.380;0.098;2023-05-07T11:28:10;20.20;66.90
63094;DHT22;49183;51.380;0.098;2023-05-07T11:30:47;20.40;66.50
63094;DHT22;49183;51.380;0.098;2023-05-07T11:33:18;20.40;65.80
63094;DHT22;49183;51.380;0.098;2023-05-07T11:39:26;20.10;65.50
63094;DHT22;49183;51.380;0.098;2023-05-07T11:41:54;20.10;66.00
63094;DHT22;49183;51.380;0.098;2023-05-07T11:44:21;20.30;65.90
63094;DHT22;49183;51.380;0.098;2023-05-07T11:46:49;20.30;65.70
63094;DHT22;49183;51.380;0.098;2023-05-07T11:49:17;20.20;65.20
63094;DHT22;49183;51.380;0.098;2023-05-07T11:51:45;20.10;65.40
63094;DHT22;49183;51.380;0.098;2023-05-07T11:54:15;20.00;65.50
63094;DHT22;49183;51.380;0.098;2023-05-07T11:56:44;19.80;65.60
63094;DHT22;49183;51.380;0.098;2023-05-07T11:59:17;19.90;66.00
63094;DHT22;49183;51.380;0.098;2023-05-07T12:01:48;20.00;66.10
63094;DHT22;49183;51.380;0.098;2023-05-07T12:04:19;20.20;65.80
63094;DHT22;49183;51.380;0.098;2023-05-07T12:06:48;20.40;65.10
63094;DHT22;49183;51.380;0.098;2023-05-07T12:09:18;20.50;64.30
63094;DHT22;49183;51.380;0.098;2023-05-07T12:11:46;20.40;63.80
63094;DHT22;49183;51.380;0.098;2023-05-07T12:14:14;20.30;64.20
63094;DHT22;49183;51.380;0.098;2023-05-07T12:16:43;20.20;64.40
63094;DHT22;49183;51.380;0.098;2023-05-07T12:19:13;20.20;64.40
63094;DHT22;49183;51.380;0.098;2023-05-07T12:21:42;20.10;64.00
63094;DHT22;49183;51.380;0.098;2023-05-07T12:24:10;20.10;64.60
63094;DHT22;49183;51.380;0.098;2023-05-07T12:26:38;20.30;64.90
63094;DHT22;49183;51.380;0.098;2023-05-07T12:29:08;20.50;64.10
63094;DHT22;49183;51.380;0.098;2023-05-07T12:31:35;20.60;63.50
63094;DHT22;49183;51.380;0.098;2023-05-07T12:34:03;20.60;62.70
63094;DHT22;49183;51.380;0.098;2023-05-07T12:36:40;20.80;62.30
63094;DHT22;49183;51.380;0.098;2023-05-07T12:39:09;20.90;62.20
63094;DHT22;49183;51.380;0.098;2023-05-07T12:41:57;21.20;61.80
63094;DHT22;49183;51.380;0.098;2023-05-07T12:44:32;21.50;61.00
63094;DHT22;49183;51.380;0.098;2023-05-07T12:47:03;21.60;60.60
63094;DHT22;49183;51.380;0.098;2023-05-07T12:49:31;21.80;60.00
63094;DHT22;49183;51.380;0.098;2023-05-07T12:52:02;21.90;60.30
63094;DHT22;49183;51.380;0.098;2023-05-07T12:54:31;22.00;58.90
63094;DHT22;49183;51.380;0.098;2023-05-07T12:57:07;22.00;58.60
63094;DHT22;49183;51.380;0.098;2023-05-07T12:59:40;21.90;59.30
63094;DHT22;49183;51.380;0.098;2023-05-07T13:02:08;22.00;59.60
63094;DHT22;49183;51.380;0.098;2023-05-07T13:04:38;22.00;59.00
63094;DHT22;49183;51.380;0.098;2023-05-07T13:07:06;22.10;58.70
63094;DHT22;49183;51.380;0.098;2023-05-07T13:09:34;22.30;58.80
63094;DHT22;49183;51.380;0.098;2023-05-07T13:12:04;22.50;58.50
63094;DHT22;49183;51.380;0.098;2023-05-07T13:14:32;22.60;57.80
63094;DHT22;49183;51.380;0.098;2023-05-07T13:16:59;22.50;58.20
63094;DHT22;49183;51.380;0.098;2023-05-07T13:19:27;22.50;58.20
63094;DHT22;49183;51.380;0.098;2023-05-07T13:21:57;22.50;58.00
63094;DHT22;49183;51.380;0.098;2023-05-07T13:24:25;22.30;57.30
63094;DHT22;49183;51.380;0.098;2023-05-07T13:26:52;22.20;57.50
63094;DHT22;49183;51.380;0.098;2023-05-07T13:29:20;22.10;57.40
63094;DHT22;49183;51.380;0.098;2023-05-07T13:31:52;22.00;57.70
63094;DHT22;49183;51.380;0.098;2023-05-07T13:34:20;22.10;58.10
63094;DHT22;49183;51.380;0.098;2023-05-07T13:36:48;22.20;57.30
63094;DHT22;49183;51.380;0.098;2023-05-07T13:39:15;22.10;57.40
63094;DHT22;49183;51.380;0.098;2023-05-07T13:41:43;21.90;56.90
63094;DHT22;49183;51.380;0.098;2023-05-07T13:44:10;21.70;57.30
63094;DHT22;49183;51.380;0.098;2023-05-07T13:46:38;21.80;57.40
63094;DHT22;49183;51.380;0.098;2023-05-07T13:49:06;21.80;57.40
63094;DHT22;49183;51.380;0.098;2023-05-07T13:51:34;22.10;57.70
63094;DHT22;49183;51.380;0.098;2023-05-07T13:54:02;22.30;57.20
63094;DHT22;49183;51.380;0.098;2023-05-07T13:56:30;22.50;57.00
63094;DHT22;49183;51.380;0.098;2023-05-07T13:58:59;22.80;56.80
63094;DHT22;49183;51.380;0.098;2023-05-07T14:01:27;23.00;56.20
63094;DHT22;49183;51.380;0.098;2023-05-07T14:03:56;23.10;55.50
63094;DHT22;49183;51.380;0.098;2023-05-07T14:06:25;23.00;54.70
63094;DHT22;49183;51.380;0.098;2023-05-07T14:08:52;22.60;54.80
63094;DHT22;49183;51.380;0.098;2023-05-07T14:11:20;22.30;55.10
63094;DHT22;49183;51.380;0.098;2023-05-07T14:13:48;22.00;55.30
63094;DHT22;49183;51.380;0.098;2023-05-07T14:16:16;21.80;55.80
63094;DHT22;49183;51.380;0.098;2023-05-07T14:18:44;22.00;56.60
63094;DHT22;49183;51.380;0.098;2023-05-07T14:21:11;22.30;57.00
63094;DHT22;49183;51.380;0.098;2023-05-07T14:23:39;22.40;56.90
63094;DHT22;49183;51.380;0.098;2023-05-07T14:26:09;22.50;56.60
63094;DHT22;49183;51.380;0.098;2023-05-07T14:28:36;22.60;56.30
63094;DHT22;49183;51.380;0.098;2023-05-07T14:31:06;22.70;56.00
63094;DHT22;49183;51.380;0.098;2023-05-07T14:33:34;22.80;55.40
63094;DHT22;49183;51.380;0.098;2023-05-07T14:36:02;23.00;54.50
63094;DHT22;49183;51.380;0.098;2023-05-07T14:38:30;23.00;54.20
63094;DHT22;49183;51.380;0.098;2023-05-07T14:41:00;22.90;53.60
63094;DHT22;49183;51.380;0.098;2023-05-07T14:43:28;22.90;54.20
63094;DHT22;49183;51.380;0.098;2023-05-07T14:45:55;23.10;54.30
63094;DHT22;49183;51.380;0.098;2023-05-07T14:48:23;23.30;53.80
63094;DHT22;49183;51.380;0.098;2023-05-07T14:50:51;23.50;53.50
63094;DHT22;49183;51.380;0.098;2023-05-07T14:53:18;23.60;52.80
63094;DHT22;49183;51.380;0.098;2023-05-07T14:55:47;23.30;52.10
63094;DHT22;49183;51.380;0.098;2023-05-07T14:58:15;23.00;52.90
63094;DHT22;49183;51.380;0.098;2023-05-07T15:00:42;22.80;53.70
63094;DHT22;49183;51.380;0.098;2023-05-07T15:03:10;22.70;54.30
63094;DHT22;49183;51.380;0.098;2023-05-07T15:05:42;22.80;54.40
63094;DHT22;49183;51.380;0.098;2023-05-07T15:08:09;22.80;53.90
63094;DHT22;49183;51.380;0.098;2023-05-07T15:10:38;23.00;53.50
63094;DHT22;49183;51.380;0.098;2023-05-07T15:13:10;23.00;53.60
63094;DHT22;49183;51.380;0.098;2023-05-07T15:15:42;22.90;53.30
63094;DHT22;49183;51.380;0.098;2023-05-07T15:18:14;22.70;53.70
63094;DHT22;49183;51.380;0.098;2023-05-07T15:20:42;22.80;54.60
63094;DHT22;49183;51.380;0.098;2023-05-07T15:23:09;23.00;54.70
63094;DHT22;49183;51.380;0.098;2023-05-07T15:25:41;23.20;53.70
63094;DHT22;49183;51.380;0.098;2023-05-07T15:28:09;23.40;53.00
63094;DHT22;49183;51.380;0.098;2023-05-07T15:30:36;23.50;52.40
63094;DHT22;49183;51.380;0.098;2023-05-07T15:33:04;23.50;52.10
63094;DHT22;49183;51.380;0.098;2023-05-07T15:35:33;23.60;51.40
63094;DHT22;49183;51.380;0.098;2023-05-07T15:38:00;23.50;51.20
63094;DHT22;49183;51.380;0.098;2023-05-07T15:40:31;23.40;51.00
63094;DHT22;49183;51.380;0.098;2023-05-07T15:43:00;23.40;51.50
63094;DHT22;49183;51.380;0.098;2023-05-07T15:45:28;23.50;51.70
63094;DHT22;49183;51.380;0.098;2023-05-07T15:47:59;23.70;51.40
63094;DHT22;49183;51.380;0.098;2023-05-07T15:50:27;23.60;50.30
63094;DHT22;49183;51.380;0.098;2023-05-07T15:52:56;23.40;50.50
63094;DHT22;49183;51.380;0.098;2023-05-07T15:55:24;23.40;51.00
63094;DHT22;49183;51.380;0.098;2023-05-07T15:57:52;23.40;50.60
63094;DHT22;49183;51.380;0.098;2023-05-07T16:00:21;23.50;50.60
63094;DHT22;49183;51.380;0.098;2023-05-07T16:02:49;23.50;50.80